createdAt,value
2022-07-27T00:00:15.034Z,100.00
2022-07-27T00:03:00.642Z,100.00
2022-07-27T00:05:46.492Z,100.00
2022-07-27T00:08:31.855Z,100.00
2022-07-27T00:11:17.453Z,100.00
2022-07-27T00:14:03.399Z,100.00
2022-07-27T00:16:49.036Z,100.00
2022-07-27T00:19:34.496Z,100.00
2022-07-27T00:22:19.817Z,100.00
2022-07-27T00:25:05.641Z,100.00
2022-07-27T00:27:51.290Z,100.00
2022-07-27T00:30:36.797Z,100.00
2022-07-27T00:33:22.480Z,100.00
2022-07-27T00:36:08.345Z,100.00
2022-07-27T00:38:53.839Z,100.00
2022-07-27T00:41:39.313Z,100.00
2022-07-27T00:44:29.041Z,100.00
2022-07-27T00:47:15.153Z,100.00
2022-07-27T00:50:01.068Z,100.00
2022-07-27T00:52:46.593Z,100.00
2022-07-27T00:55:33.277Z,100.00
2022-07-27T00:58:18.945Z,100.00
2022-07-27T01:01:05.034Z,100.00
2022-07-27T01:03:50.478Z,100.00
2022-07-27T01:06:37.373Z,100.00
2022-07-27T01:09:41.068Z,100.00
2022-07-27T01:12:32.138Z,100.00
2022-07-27T01:15:17.702Z,100.00
2022-07-27T01:18:02.975Z,100.00
2022-07-27T01:20:48.589Z,100.00
2022-07-27T01:23:35.036Z,100.00
2022-07-27T01:26:20.546Z,100.00
2022-07-27T01:29:06.545Z,100.00
2022-07-27T01:31:52.073Z,100.00
2022-07-27T01:34:37.524Z,100.00
2022-07-27T01:37:22.948Z,100.00
2022-07-27T01:40:08.698Z,100.00
2022-07-27T01:42:54.637Z,100.00
2022-07-27T01:45:40.457Z,100.00
2022-07-27T01:48:26.254Z,100.00
2022-07-27T01:51:11.981Z,100.00
2022-07-27T01:53:57.656Z,100.00
2022-07-27T01:56:43.150Z,100.00
2022-07-27T01:59:28.568Z,100.00
2022-07-27T02:02:15.999Z,100.00
2022-07-27T02:05:01.650Z,100.00
2022-07-27T02:07:47.358Z,100.00
2022-07-27T02:10:33.646Z,100.00
2022-07-27T02:13:22.679Z,100.00
2022-07-27T02:16:16.711Z,100.00
2022-07-27T02:19:04.908Z,100.00
2022-07-27T02:21:51.053Z,100.00
2022-07-27T02:24:37.799Z,100.00
2022-07-27T02:27:23.688Z,100.00
2022-07-27T02:30:11.087Z,100.00
2022-07-27T02:32:57.070Z,100.00
2022-07-27T02:35:43.173Z,100.00
2022-07-27T02:38:28.706Z,100.00
2022-07-27T02:41:14.079Z,100.00
2022-07-27T02:43:59.688Z,100.00
2022-07-27T02:46:45.240Z,100.00
2022-07-27T02:49:30.513Z,100.00
2022-07-27T02:52:16.099Z,100.00
2022-07-27T02:55:02.346Z,100.00
2022-07-27T02:57:47.689Z,100.00
2022-07-27T03:00:34.062Z,100.00
2022-07-27T03:03:19.341Z,100.00
2022-07-27T03:06:08.189Z,100.00
2022-07-27T03:08:53.572Z,100.00
2022-07-27T03:11:39.101Z,100.00
2022-07-27T03:14:24.518Z,100.00
2022-07-27T03:17:09.965Z,100.00
2022-07-27T03:19:55.497Z,100.00
2022-07-27T03:22:41.702Z,100.00
2022-07-27T03:25:27.061Z,100.00
2022-07-27T03:28:12.548Z,100.00
2022-07-27T03:30:58.245Z,100.00
2022-07-27T03:33:43.609Z,100.00
2022-07-27T03:36:29.002Z,100.00
2022-07-27T03:39:16.062Z,100.00
2022-07-27T03:42:04.164Z,100.00
2022-07-27T03:44:50.594Z,100.00
2022-07-27T03:47:36.284Z,100.00
2022-07-27T03:50:22.529Z,100.00
2022-07-27T03:53:09.074Z,100.00
2022-07-27T03:55:54.588Z,100.00
2022-07-27T03:58:39.912Z,100.00
2022-07-27T04:01:25.285Z,100.00
2022-07-27T04:04:10.939Z,100.00
2022-07-27T04:06:56.287Z,100.00
2022-07-27T04:09:41.790Z,100.00
2022-07-27T04:12:29.198Z,100.00
2022-07-27T04:15:15.050Z,100.00
2022-07-27T04:18:00.602Z,100.00
2022-07-27T04:20:47.605Z,100.00
2022-07-27T04:23:37.938Z,100.00
2022-07-27T04:26:24.085Z,100.00
2022-07-27T04:29:09.692Z,100.00
2022-07-27T04:31:55.446Z,100.00
2022-07-27T04:34:40.856Z,100.00
2022-07-27T04:37:26.479Z,100.00
2022-07-27T04:40:12.146Z,100.00
2022-07-27T04:42:57.602Z,100.00
2022-07-27T04:45:43.321Z,100.00
2022-07-27T04:48:29.144Z,100.00
2022-07-27T04:51:15.632Z,100.00
2022-07-27T04:54:01.053Z,100.00
2022-07-27T04:56:46.627Z,100.00
2022-07-27T04:59:32.317Z,100.00
2022-07-27T05:02:18.055Z,100.00
2022-07-27T05:05:03.340Z,100.00
2022-07-27T05:07:48.675Z,100.00
2022-07-27T05:10:34.029Z,100.00
2022-07-27T05:13:19.546Z,100.00
2022-07-27T05:16:06.775Z,100.00
2022-07-27T05:18:52.323Z,100.00
2022-07-27T05:21:38.064Z,100.00
2022-07-27T05:24:24.067Z,100.00
2022-07-27T05:27:09.389Z,100.00
2022-07-27T05:29:55.041Z,100.00
2022-07-27T05:32:40.338Z,100.00
2022-07-27T05:35:25.818Z,100.00
2022-07-27T05:38:11.254Z,100.00
2022-07-27T05:40:56.763Z,100.00
2022-07-27T05:43:42.181Z,100.00
2022-07-27T05:46:32.519Z,100.00
2022-07-27T05:49:18.266Z,100.00
2022-07-27T05:52:04.115Z,100.00
2022-07-27T05:54:49.448Z,100.00
2022-07-27T05:57:35.084Z,100.00
2022-07-27T06:00:20.621Z,100.00
2022-07-27T06:03:06.269Z,100.00
2022-07-27T06:05:51.903Z,98.12
2022-07-27T06:08:37.652Z,99.28
2022-07-27T06:11:23.090Z,96.02
2022-07-27T06:14:08.956Z,97.11
2022-07-27T06:16:54.527Z,96.63
2022-07-27T06:19:40.034Z,94.60
2022-07-27T06:22:25.613Z,94.18
2022-07-27T06:25:12.130Z,93.60
2022-07-27T06:27:57.681Z,91.09
2022-07-27T06:30:43.150Z,89.06
2022-07-27T06:33:29.270Z,86.92
2022-07-27T06:36:15.028Z,86.93
2022-07-27T06:39:00.672Z,84.31
2022-07-27T06:41:46.044Z,81.95
2022-07-27T06:44:31.613Z,81.31
2022-07-27T06:47:17.445Z,81.71
2022-07-27T06:50:03.898Z,79.75
2022-07-27T06:52:49.703Z,79.35
2022-07-27T06:55:35.322Z,76.81
2022-07-27T06:58:20.745Z,79.13
2022-07-27T07:01:06.413Z,78.14
2022-07-27T07:03:51.975Z,74.26
2022-07-27T07:06:37.618Z,71.16
2022-07-27T07:09:23.033Z,69.20
2022-07-27T07:12:08.531Z,70.29
2022-07-27T07:14:54.117Z,73.76
2022-07-27T07:17:40.559Z,69.70
2022-07-27T07:20:26.024Z,71.66
2022-07-27T07:23:12.035Z,71.82
2022-07-27T07:25:57.669Z,70.39
2022-07-27T07:28:43.398Z,69.66
2022-07-27T07:31:29.025Z,67.39
2022-07-27T07:34:14.348Z,62.83
2022-07-27T07:37:00.021Z,61.09
2022-07-27T07:39:47.092Z,64.79
2022-07-27T07:42:32.806Z,66.05
2022-07-27T07:45:18.861Z,71.83
2022-07-27T07:48:05.723Z,68.21
2022-07-27T07:50:53.249Z,64.79
2022-07-27T07:53:41.741Z,64.49
2022-07-27T07:56:27.488Z,58.59
2022-07-27T07:59:13.425Z,57.93
2022-07-27T08:01:59.386Z,58.01
2022-07-27T08:04:45.052Z,59.32
2022-07-27T08:07:30.600Z,58.66
2022-07-27T08:10:18.805Z,62.87
2022-07-27T08:13:04.429Z,64.71
2022-07-27T08:15:52.202Z,66.57
2022-07-27T08:18:37.644Z,64.67
2022-07-27T08:21:23.387Z,64.75
2022-07-27T08:24:08.903Z,65.90
2022-07-27T08:26:54.221Z,63.01
2022-07-27T08:29:39.769Z,61.14
2022-07-27T08:32:25.205Z,62.27
2022-07-27T08:35:16.962Z,62.49
2022-07-27T08:38:05.148Z,60.58
2022-07-27T08:40:51.061Z,59.16
2022-07-27T08:43:37.391Z,58.51
2022-07-27T08:46:26.560Z,60.39
2022-07-27T08:49:14.836Z,61.68
2022-07-27T08:52:02.086Z,63.53
2022-07-27T08:54:47.795Z,65.33
2022-07-27T08:57:34.974Z,65.75
2022-07-27T09:00:21.012Z,66.77
2022-07-27T09:03:06.905Z,67.33
2022-07-27T09:05:55.522Z,70.13
2022-07-27T09:08:41.860Z,69.89
2022-07-27T09:11:28.078Z,69.17
2022-07-27T09:14:15.818Z,68.71
2022-07-27T09:17:48.086Z,66.42
2022-07-27T09:20:27.714Z,66.88
2022-07-27T09:23:26.481Z,61.97
2022-07-27T09:26:31.224Z,61.14
2022-07-27T09:29:18.001Z,60.75
2022-07-27T09:32:14.693Z,57.17
2022-07-27T09:35:24.942Z,57.53
2022-07-27T09:38:20.901Z,55.97
2022-07-27T09:41:06.924Z,49.03
2022-07-27T09:47:00.701Z,43.56
2022-07-27T09:49:46.430Z,42.78
2022-07-27T09:52:32.189Z,42.23
2022-07-27T09:55:20.925Z,42.53
2022-07-27T09:58:06.426Z,40.94
2022-07-27T10:01:00.979Z,38.58
2022-07-27T10:03:46.807Z,39.27
2022-07-27T10:06:47.802Z,38.16
2022-07-27T10:09:37.894Z,41.21
2022-07-27T10:12:23.581Z,42.61
2022-07-27T10:15:10.480Z,45.30
2022-07-27T10:18:08.538Z,40.50
2022-07-27T10:20:57.454Z,39.75
2022-07-27T10:24:01.121Z,38.68
2022-07-27T10:26:46.741Z,40.57
2022-07-27T10:29:33.627Z,44.13
2022-07-27T10:32:33.074Z,48.65
2022-07-27T10:35:35.349Z,50.20
2022-07-27T10:38:21.609Z,49.84
2022-07-27T10:41:23.342Z,50.29
2022-07-27T10:44:14.968Z,41.80
2022-07-27T10:47:04.113Z,42.72
2022-07-27T10:49:50.408Z,44.11
2022-07-27T10:52:46.398Z,46.45
2022-07-27T10:55:32.109Z,49.73
2022-07-27T10:58:37.650Z,49.78
2022-07-27T11:01:23.679Z,51.83
2022-07-27T11:04:09.738Z,49.97
2022-07-27T11:07:23.424Z,42.01
2022-07-27T11:10:04.978Z,39.86
2022-07-27T11:12:53.493Z,34.55
2022-07-27T11:15:39.065Z,35.11
2022-07-27T11:18:28.273Z,38.45
2022-07-27T11:21:26.386Z,42.56
2022-07-27T11:24:19.780Z,43.30
2022-07-27T11:27:16.885Z,41.96
2022-07-27T11:30:03.274Z,42.75
2022-07-27T11:32:49.397Z,44.19
2022-07-27T11:35:34.687Z,42.53
2022-07-27T11:38:20.582Z,42.98
2022-07-27T11:41:17.005Z,41.55
2022-07-27T11:44:17.193Z,35.61
2022-07-27T11:47:02.770Z,37.58
2022-07-27T11:49:48.318Z,42.15
2022-07-27T11:52:34.482Z,45.06
2022-07-27T11:55:20.214Z,47.31
2022-07-27T11:58:05.517Z,48.03
2022-07-27T12:00:51.165Z,45.40
2022-07-27T12:03:46.890Z,41.32
2022-07-27T12:06:34.364Z,34.29
2022-07-27T12:09:20.149Z,33.90
2022-07-27T12:12:15.712Z,36.76
2022-07-27T12:18:24.464Z,44.26
2022-07-27T12:21:17.931Z,45.08
2022-07-27T12:24:03.802Z,45.38
2022-07-27T12:27:13.005Z,46.09
2022-07-27T12:30:08.058Z,46.41
2022-07-27T12:32:55.750Z,44.28
2022-07-27T12:35:46.775Z,42.07
2022-07-27T12:38:45.330Z,40.96
2022-07-27T12:41:35.332Z,36.18
2022-07-27T12:44:21.126Z,33.80
2022-07-27T12:47:28.062Z,37.85
2022-07-27T12:50:15.567Z,42.97
2022-07-27T12:53:01.765Z,45.19
2022-07-27T12:55:47.296Z,47.48
2022-07-27T12:58:33.141Z,47.54
2022-07-27T13:01:18.507Z,47.35
2022-07-27T13:04:04.072Z,39.04
2022-07-27T13:06:49.690Z,36.90
2022-07-27T13:10:01.820Z,37.51
2022-07-27T13:12:41.304Z,39.53
2022-07-27T13:15:26.814Z,41.58
2022-07-27T13:18:12.162Z,43.97
2022-07-27T13:20:57.928Z,46.12
2022-07-27T13:23:43.368Z,45.08
2022-07-27T13:26:28.807Z,45.38
2022-07-27T13:29:14.957Z,42.62
2022-07-27T13:32:00.918Z,36.58
2022-07-27T13:34:46.418Z,32.46
2022-07-27T13:37:31.706Z,32.37
2022-07-27T13:40:17.437Z,35.52
2022-07-27T13:43:03.113Z,39.50
2022-07-27T13:45:54.440Z,39.99
2022-07-27T13:48:40.066Z,40.72
2022-07-27T13:51:25.578Z,35.54
2022-07-27T13:54:12.450Z,31.79
2022-07-27T13:56:58.013Z,29.04
2022-07-27T13:59:43.383Z,31.85
2022-07-27T14:02:29.189Z,30.43
2022-07-27T14:05:15.810Z,29.99
2022-07-27T14:08:01.802Z,29.98
2022-07-27T14:10:47.521Z,31.62
2022-07-27T14:13:32.894Z,28.61
2022-07-27T14:16:18.711Z,30.83
2022-07-27T14:19:09.358Z,32.65
2022-07-27T14:21:57.943Z,29.92
2022-07-27T14:24:43.492Z,29.64
2022-07-27T14:27:36.086Z,29.42
2022-07-27T14:30:23.096Z,29.71
2022-07-27T14:33:08.750Z,30.19
2022-07-27T14:35:54.369Z,31.75
2022-07-27T14:38:39.945Z,35.99
2022-07-27T14:41:25.320Z,32.06
2022-07-27T14:44:11.016Z,28.26
2022-07-27T14:46:56.516Z,27.70
2022-07-27T14:49:44.517Z,28.45
2022-07-27T14:52:30.565Z,28.59
2022-07-27T14:55:16.377Z,32.79
2022-07-27T14:58:02.536Z,36.26
2022-07-27T15:00:48.207Z,36.93
2022-07-27T15:03:33.953Z,32.56
2022-07-27T15:06:19.605Z,30.72
2022-07-27T15:09:05.341Z,30.41
2022-07-27T15:11:50.593Z,31.13
2022-07-27T15:14:39.004Z,28.24
2022-07-27T15:17:24.444Z,30.34
2022-07-27T15:20:10.299Z,30.03
2022-07-27T15:22:56.069Z,31.40
2022-07-27T15:25:41.337Z,35.89
2022-07-27T15:28:26.896Z,38.21
2022-07-27T15:31:13.352Z,40.35
2022-07-27T15:33:59.241Z,38.96
2022-07-27T15:36:48.589Z,40.03
2022-07-27T15:39:39.347Z,40.66
2022-07-27T15:42:25.156Z,42.11
2022-07-27T15:45:11.714Z,43.03
2022-07-27T15:47:57.407Z,43.69
2022-07-27T15:50:45.140Z,43.73
2022-07-27T15:53:30.686Z,43.21
2022-07-27T15:56:16.724Z,45.49
2022-07-27T15:59:02.429Z,46.07
2022-07-27T16:01:47.855Z,44.71
2022-07-27T16:04:33.668Z,44.68
2022-07-27T16:07:19.474Z,45.91
2022-07-27T16:10:05.270Z,46.78
2022-07-27T16:12:50.904Z,45.82
2022-07-27T16:15:55.709Z,45.84
2022-07-27T16:18:41.340Z,47.65
2022-07-27T16:21:28.325Z,48.28
2022-07-27T16:24:38.076Z,47.84
2022-07-27T16:27:23.625Z,48.43
2022-07-27T16:30:09.086Z,50.00
2022-07-27T16:32:54.906Z,49.46
2022-07-27T16:35:42.694Z,49.69
2022-07-27T16:38:28.671Z,51.29
2022-07-27T16:41:16.268Z,52.19
2022-07-27T16:44:01.673Z,54.15
2022-07-27T16:46:48.083Z,54.26
2022-07-27T16:49:36.577Z,52.98
2022-07-27T16:52:22.437Z,53.01
2022-07-27T16:55:08.202Z,51.64
2022-07-27T16:57:53.976Z,54.26
2022-07-27T17:00:39.708Z,54.75
2022-07-27T17:03:25.486Z,54.90
2022-07-27T17:06:10.754Z,54.48
2022-07-27T17:08:56.421Z,55.49
2022-07-27T17:11:42.070Z,55.38
2022-07-27T17:14:27.648Z,55.04
2022-07-27T17:17:14.541Z,55.47
2022-07-27T17:19:59.902Z,55.82
2022-07-27T17:22:45.210Z,54.43
2022-07-27T17:25:30.788Z,55.87
2022-07-27T17:28:16.956Z,58.78
2022-07-27T17:31:04.328Z,57.55
2022-07-27T17:33:50.836Z,58.35
2022-07-27T17:36:36.232Z,57.38
2022-07-27T17:39:21.806Z,57.45
2022-07-27T17:42:07.473Z,59.15
2022-07-27T17:44:53.128Z,58.73
2022-07-27T17:47:38.801Z,58.79
2022-07-27T17:50:24.101Z,59.51
2022-07-27T17:53:09.839Z,59.99
2022-07-27T17:55:56.873Z,59.62
2022-07-27T17:58:45.602Z,60.95
2022-07-27T18:01:46.313Z,62.00
2022-07-27T18:04:39.121Z,63.12
2022-07-27T18:07:25.213Z,62.24
2022-07-27T18:10:10.594Z,61.47
2022-07-27T18:12:56.305Z,60.38
2022-07-27T18:15:47.335Z,62.50
2022-07-27T18:18:33.083Z,63.46
2022-07-27T18:21:18.850Z,64.98
2022-07-27T18:24:04.518Z,66.35
2022-07-27T18:26:50.501Z,67.56
2022-07-27T18:29:36.959Z,68.36
2022-07-27T18:32:24.640Z,68.16
2022-07-27T18:35:10.213Z,69.36
2022-07-27T18:37:55.666Z,71.84
2022-07-27T18:40:43.546Z,71.85
2022-07-27T18:43:28.905Z,72.95
2022-07-27T18:46:17.176Z,72.55
2022-07-27T18:49:02.890Z,72.87
2022-07-27T18:51:48.429Z,73.37
2022-07-27T18:54:33.763Z,73.67
2022-07-27T18:57:20.215Z,74.45
2022-07-27T19:00:06.023Z,75.31
2022-07-27T19:02:51.790Z,75.24
2022-07-27T19:05:42.647Z,74.49
2022-07-27T19:08:28.440Z,76.07
2022-07-27T19:11:15.067Z,77.66
2022-07-27T19:14:00.446Z,81.08
2022-07-27T19:16:45.944Z,79.41
2022-07-27T19:19:31.957Z,80.66
2022-07-27T19:22:17.363Z,80.82
2022-07-27T19:25:04.441Z,80.21
2022-07-27T19:27:50.217Z,79.33
2022-07-27T19:30:35.890Z,79.83
2022-07-27T19:33:21.544Z,80.57
2022-07-27T19:36:07.316Z,81.21
2022-07-27T19:38:52.832Z,81.42
2022-07-27T19:41:38.396Z,83.43
2022-07-27T19:44:24.134Z,82.62
2022-07-27T19:47:09.532Z,84.27
2022-07-27T19:49:55.735Z,83.52
2022-07-27T19:52:41.310Z,82.59
2022-07-27T19:55:26.789Z,85.18
2022-07-27T19:58:12.350Z,86.93
2022-07-27T20:00:58.241Z,85.44
2022-07-27T20:03:53.359Z,85.47
2022-07-27T20:06:40.862Z,85.34
2022-07-27T20:09:28.630Z,88.24
2022-07-27T20:12:14.097Z,88.19
2022-07-27T20:15:00.323Z,87.94
2022-07-27T20:17:46.565Z,89.08
2022-07-27T20:20:32.004Z,90.17
2022-07-27T20:23:17.862Z,93.03
2022-07-27T20:26:03.275Z,91.35
2022-07-27T20:28:50.217Z,92.30
2022-07-27T20:31:35.603Z,90.36
2022-07-27T20:34:21.436Z,89.64
2022-07-27T20:37:07.005Z,92.06
2022-07-27T20:39:52.303Z,93.10
2022-07-27T20:42:41.906Z,92.41
2022-07-27T20:45:27.244Z,92.77
2022-07-27T20:48:12.678Z,93.51
2022-07-27T20:50:58.424Z,93.02
2022-07-27T20:53:43.983Z,94.38
2022-07-27T20:56:29.634Z,94.74
2022-07-27T20:59:17.126Z,95.19
2022-07-27T21:02:02.901Z,95.17
2022-07-27T21:04:48.494Z,95.14
2022-07-27T21:07:34.151Z,97.52
2022-07-27T21:10:19.992Z,98.39
2022-07-27T21:13:05.742Z,99.36
2022-07-27T21:15:51.939Z,97.71
2022-07-27T21:18:37.528Z,97.06
2022-07-27T21:21:27.392Z,97.18
2022-07-27T21:24:17.077Z,97.81
2022-07-27T21:27:04.598Z,98.54
2022-07-27T21:29:50.470Z,99.52
2022-07-27T21:32:36.045Z,99.40
2022-07-27T21:35:21.566Z,99.14
2022-07-27T21:38:07.264Z,98.10
2022-07-27T21:40:52.783Z,99.01
2022-07-27T21:43:38.300Z,100.00
2022-07-27T21:46:24.188Z,100.00
2022-07-27T21:49:10.316Z,100.00
2022-07-27T21:51:56.312Z,100.00
2022-07-27T21:54:41.834Z,100.00
2022-07-27T21:57:27.371Z,100.00
2022-07-27T22:00:14.031Z,100.00
2022-07-27T22:02:59.425Z,100.00
2022-07-27T22:05:44.862Z,100.00
2022-07-27T22:08:30.581Z,100.00
2022-07-27T22:11:16.279Z,100.00
2022-07-27T22:14:02.287Z,100.00
2022-07-27T22:16:47.904Z,100.00
2022-07-27T22:19:33.655Z,100.00
2022-07-27T22:22:18.940Z,100.00
2022-07-27T22:25:05.082Z,100.00
2022-07-27T22:27:51.205Z,100.00
2022-07-27T22:30:36.523Z,100.00
2022-07-27T22:33:22.163Z,100.00
2022-07-27T22:36:08.008Z,100.00
2022-07-27T22:38:53.472Z,100.00
2022-07-27T22:41:38.953Z,100.00
2022-07-27T22:44:24.306Z,100.00
2022-07-27T22:47:10.096Z,100.00
2022-07-27T22:49:55.759Z,100.00
2022-07-27T22:52:41.426Z,100.00
2022-07-27T22:55:27.233Z,100.00
2022-07-27T22:58:12.610Z,100.00
2022-07-27T23:00:59.823Z,100.00
2022-07-27T23:03:45.456Z,100.00
2022-07-27T23:06:31.086Z,100.00
2022-07-27T23:09:17.221Z,100.00
2022-07-27T23:12:03.449Z,100.00
2022-07-27T23:14:49.241Z,100.00
2022-07-27T23:17:34.924Z,100.00
2022-07-27T23:20:20.279Z,100.00
2022-07-27T23:23:12.483Z,100.00
2022-07-27T23:26:01.948Z,100.00
2022-07-27T23:28:48.212Z,100.00
2022-07-27T23:31:33.548Z,100.00
2022-07-27T23:34:19.036Z,100.00
2022-07-27T23:37:04.653Z,100.00
2022-07-27T23:39:50.040Z,100.00
2022-07-27T23:42:35.416Z,100.00
2022-07-27T23:45:20.935Z,100.00
2022-07-27T23:48:06.757Z,100.00
2022-07-27T23:50:52.347Z,100.00
2022-07-27T23:53:37.985Z,100.00
2022-07-27T23:56:23.715Z,100.00
2022-07-27T23:59:09.099Z,100.00
